createdAt,value
2024-01-20T00:00:28.724Z,55.85
2024-01-20T00:02:56.300Z,48.25
2024-01-20T00:05:25.415Z,47.50
2024-01-20T00:07:53.110Z,47.47
2024-01-20T00:10:20.873Z,46.03
2024-01-20T00:12:48.502Z,46.60
2024-01-20T00:15:16.141Z,51.15
2024-01-20T00:17:44.107Z,47.50
2024-01-20T00:20:12.378Z,51.72
2024-01-20T00:22:41.379Z,46.97
2024-01-20T00:25:10.159Z,47.70
2024-01-20T00:27:39.108Z,46.50
2024-01-20T00:30:07.935Z,46.97
2024-01-20T00:32:35.963Z,53.45
2024-01-20T00:35:07.758Z,49.38
2024-01-20T00:40:07.594Z,47.05
2024-01-20T00:42:35.534Z,47.92
2024-01-20T00:45:03.573Z,50.03
2024-01-20T00:47:31.598Z,45.72
2024-01-20T00:49:59.504Z,46.42
2024-01-20T00:52:27.248Z,45.17
2024-01-20T00:54:54.820Z,44.17
2024-01-20T00:57:23.920Z,39.85
2024-01-20T00:59:51.508Z,44.75
2024-01-20T01:02:20.259Z,48.03
2024-01-20T01:04:47.982Z,42.25
2024-01-20T01:07:15.736Z,40.38
2024-01-20T01:09:43.377Z,38.83
2024-01-20T01:12:11.710Z,39.90
2024-01-20T01:14:40.687Z,38.60
2024-01-20T01:17:08.384Z,43.15
2024-01-20T01:19:36.148Z,40.70
2024-01-20T01:22:04.531Z,33.95
2024-01-20T01:24:32.173Z,39.50
2024-01-20T01:26:59.879Z,35.05
2024-01-20T01:29:27.651Z,36.55
2024-01-20T01:31:56.730Z,35.17
2024-01-20T01:34:24.399Z,36.28
2024-01-20T01:36:52.001Z,36.45
2024-01-20T01:39:19.975Z,32.97
2024-01-20T01:41:47.617Z,31.33
2024-01-20T01:44:15.476Z,30.60
2024-01-20T01:46:43.431Z,32.30
2024-01-20T01:49:12.877Z,27.55
2024-01-20T01:51:40.947Z,27.67
2024-01-20T01:54:10.502Z,33.20
2024-01-20T01:56:38.210Z,26.27
2024-01-20T01:59:05.787Z,27.80
2024-01-20T02:01:33.497Z,27.20
2024-01-20T02:04:01.444Z,26.00
2024-01-20T02:06:30.561Z,24.35
2024-01-20T02:08:58.718Z,28.55
2024-01-20T02:11:26.609Z,27.05
2024-01-20T02:13:54.908Z,25.23
2024-01-20T02:16:22.528Z,27.58
2024-01-20T02:18:50.264Z,26.05
2024-01-20T02:21:17.974Z,27.48
2024-01-20T02:23:48.592Z,26.30
2024-01-20T02:26:16.201Z,22.65
2024-01-20T02:28:44.018Z,20.70
2024-01-20T02:31:12.944Z,23.05
2024-01-20T02:33:40.685Z,23.33
2024-01-20T02:36:08.643Z,22.15
2024-01-20T02:38:36.228Z,23.13
2024-01-20T02:41:05.656Z,25.33
2024-01-20T02:43:33.326Z,20.70
2024-01-20T02:46:00.907Z,23.52
2024-01-20T02:48:28.780Z,21.45
2024-01-20T02:50:56.475Z,26.40
2024-01-20T02:53:25.381Z,23.48
2024-01-20T02:55:53.097Z,20.95
2024-01-20T02:58:22.227Z,20.77
2024-01-20T03:00:50.362Z,23.63
2024-01-20T03:03:18.266Z,26.70
2024-01-20T03:05:45.979Z,25.67
2024-01-20T03:08:13.619Z,27.08
2024-01-20T03:10:41.174Z,27.45
2024-01-20T03:13:08.763Z,24.85
2024-01-20T03:15:37.772Z,25.48
2024-01-20T03:18:05.950Z,30.83
2024-01-20T03:20:33.581Z,28.90
2024-01-20T03:23:02.150Z,29.73
2024-01-20T03:25:29.724Z,27.58
2024-01-20T03:27:57.381Z,30.67
2024-01-20T03:30:25.187Z,29.70
2024-01-20T03:32:54.458Z,31.30
2024-01-20T03:35:23.530Z,34.65
2024-01-20T03:37:51.212Z,32.83
2024-01-20T03:40:18.837Z,33.00
2024-01-20T03:42:46.472Z,31.30
2024-01-20T03:45:14.109Z,34.05
2024-01-20T03:47:41.703Z,34.17
2024-01-20T03:50:11.525Z,29.88
2024-01-20T03:52:39.363Z,34.20
2024-01-20T03:55:08.435Z,34.38
2024-01-20T03:57:36.058Z,37.78
2024-01-20T04:00:04.699Z,37.55
2024-01-20T04:02:32.416Z,36.03
2024-01-20T04:05:00.020Z,34.58
2024-01-20T04:07:29.011Z,34.85
2024-01-20T04:09:56.610Z,35.92
2024-01-20T04:12:25.177Z,34.15
2024-01-20T04:14:52.888Z,36.22
2024-01-20T04:17:20.555Z,35.35
2024-01-20T04:19:48.270Z,34.95
2024-01-20T04:22:15.938Z,36.55
2024-01-20T04:24:44.894Z,37.15
2024-01-20T04:27:12.533Z,34.22
2024-01-20T04:29:40.410Z,39.50
2024-01-20T04:32:08.041Z,35.90
2024-01-20T04:34:35.693Z,34.05
2024-01-20T04:37:03.433Z,36.65
2024-01-20T04:39:31.080Z,34.30
2024-01-20T04:42:00.208Z,38.35
2024-01-20T04:44:27.778Z,38.20
2024-01-20T04:46:55.400Z,36.65
2024-01-20T04:49:23.052Z,42.17
2024-01-20T04:51:51.753Z,37.55
2024-01-20T04:54:19.491Z,43.15
2024-01-20T04:56:47.066Z,35.20
2024-01-20T04:59:16.104Z,38.40
2024-01-20T05:01:43.845Z,39.08
2024-01-20T05:04:11.493Z,37.95
2024-01-20T05:06:39.424Z,40.78
2024-01-20T05:09:07.447Z,39.92
2024-01-20T05:11:35.057Z,35.90
2024-01-20T05:14:02.670Z,41.67
2024-01-20T05:16:31.560Z,39.55
2024-01-20T05:18:59.409Z,36.65
2024-01-20T05:21:27.317Z,34.70
2024-01-20T05:23:54.928Z,35.90
2024-01-20T05:26:22.521Z,38.85
2024-01-20T05:28:50.266Z,44.25
2024-01-20T05:31:17.937Z,41.40
2024-01-20T05:33:47.156Z,39.60
2024-01-20T05:36:14.931Z,39.40
2024-01-20T05:38:42.684Z,39.85
2024-01-20T05:41:11.595Z,37.17
2024-01-20T05:43:39.326Z,38.70
2024-01-20T05:46:07.988Z,37.92
2024-01-20T05:48:36.809Z,38.83
2024-01-20T05:51:06.707Z,34.30
2024-01-20T05:53:34.331Z,39.10
2024-01-20T05:56:02.176Z,38.42
2024-01-20T05:58:29.784Z,35.75
2024-01-20T06:00:57.529Z,40.13
2024-01-20T06:03:27.217Z,36.90
2024-01-20T06:05:54.998Z,36.15
2024-01-20T06:08:24.094Z,36.92
2024-01-20T06:10:52.450Z,37.35
2024-01-20T06:13:20.879Z,38.35
2024-01-20T06:15:48.558Z,35.88
2024-01-20T06:18:16.455Z,42.35
2024-01-20T06:20:44.234Z,39.05
2024-01-20T06:23:11.910Z,36.42
2024-01-20T06:25:40.878Z,38.63
2024-01-20T06:28:08.442Z,38.88
2024-01-20T06:30:36.344Z,38.13
2024-01-20T06:33:04.731Z,42.35
2024-01-20T06:35:32.510Z,37.30
2024-01-20T06:38:00.270Z,40.03
2024-01-20T06:40:27.889Z,42.28
2024-01-20T06:42:57.036Z,40.97
2024-01-20T06:45:24.613Z,38.58
2024-01-20T06:47:52.366Z,36.75
2024-01-20T06:50:20.298Z,40.28
2024-01-20T06:52:47.958Z,37.40
2024-01-20T06:55:15.694Z,41.70
2024-01-20T06:57:43.342Z,40.97
2024-01-20T07:00:13.836Z,38.05
2024-01-20T07:02:41.438Z,37.15
2024-01-20T07:05:10.744Z,39.88
2024-01-20T07:07:39.234Z,39.67
2024-01-20T07:10:09.770Z,40.60
2024-01-20T07:12:38.585Z,39.53
2024-01-20T07:15:07.319Z,41.03
2024-01-20T07:17:36.477Z,38.75
2024-01-20T07:20:05.063Z,39.63
2024-01-20T07:22:32.889Z,39.65
2024-01-20T07:25:00.529Z,39.40
2024-01-20T07:27:28.222Z,39.63
2024-01-20T07:29:56.004Z,38.28
2024-01-20T07:32:23.810Z,39.10
2024-01-20T07:34:52.921Z,40.25
2024-01-20T07:37:20.983Z,44.28
2024-01-20T07:39:48.830Z,41.03
2024-01-20T07:42:16.438Z,41.58
2024-01-20T07:44:44.154Z,42.10
2024-01-20T07:47:11.968Z,39.28
2024-01-20T07:49:39.730Z,38.47
2024-01-20T07:52:08.879Z,41.15
2024-01-20T07:54:36.567Z,42.95
2024-01-20T07:57:04.588Z,37.78
2024-01-20T07:59:32.215Z,40.92
2024-01-20T08:01:59.886Z,37.42
2024-01-20T08:04:27.710Z,37.30
2024-01-20T08:06:55.409Z,38.47
2024-01-20T08:09:24.669Z,41.17
2024-01-20T08:11:52.287Z,41.00
2024-01-20T08:14:19.880Z,38.10
2024-01-20T08:16:47.457Z,37.70
2024-01-20T08:19:15.170Z,33.83
2024-01-20T08:21:44.318Z,36.90
2024-01-20T08:24:12.031Z,38.10
2024-01-20T08:26:40.944Z,38.22
2024-01-20T08:29:08.569Z,39.38
2024-01-20T08:31:36.335Z,34.33
2024-01-20T08:34:06.325Z,38.47
2024-01-20T08:36:34.135Z,39.60
2024-01-20T08:39:01.829Z,40.97
2024-01-20T08:41:29.535Z,44.13
2024-01-20T08:43:58.893Z,38.60
2024-01-20T08:46:27.045Z,37.83
2024-01-20T08:48:54.678Z,39.92
2024-01-20T08:51:22.291Z,37.40
2024-01-20T08:53:50.116Z,35.15
2024-01-20T08:56:17.770Z,38.60
2024-01-20T08:58:45.350Z,40.42
2024-01-20T09:01:14.243Z,40.88
2024-01-20T09:03:41.978Z,40.08
2024-01-20T09:06:09.704Z,38.95
2024-01-20T09:08:37.351Z,37.10
2024-01-20T09:11:05.606Z,36.55
2024-01-20T09:13:33.254Z,33.45
2024-01-20T09:16:00.853Z,36.25
2024-01-20T09:18:30.073Z,36.13
2024-01-20T09:20:57.760Z,38.63
2024-01-20T09:23:25.397Z,38.03
2024-01-20T09:25:52.950Z,40.42
2024-01-20T09:28:20.581Z,37.15
2024-01-20T09:30:48.253Z,37.03
2024-01-20T09:33:16.162Z,36.17
2024-01-20T09:35:47.051Z,35.00
2024-01-20T09:38:14.730Z,37.05
2024-01-20T09:40:42.399Z,35.40
2024-01-20T09:43:11.127Z,36.45
2024-01-20T09:45:40.219Z,37.20
2024-01-20T09:48:08.928Z,30.63
2024-01-20T09:50:36.861Z,30.42
2024-01-20T09:53:15.195Z,31.33
2024-01-20T09:55:43.423Z,32.20
2024-01-20T09:58:13.273Z,30.50
2024-01-20T10:00:41.540Z,29.60
2024-01-20T10:03:10.841Z,28.17
2024-01-20T10:05:40.051Z,26.67
2024-01-20T10:08:09.259Z,25.30
2024-01-20T10:10:37.135Z,24.65
2024-01-20T10:13:05.055Z,25.92
2024-01-20T10:15:34.976Z,23.38
2024-01-20T10:18:09.295Z,22.27
2024-01-20T10:20:37.872Z,24.20
2024-01-20T10:23:07.485Z,23.00
2024-01-20T10:25:36.746Z,21.40
2024-01-20T10:28:04.933Z,19.63
2024-01-20T10:30:32.845Z,23.98
2024-01-20T10:35:31.251Z,18.88
2024-01-20T10:38:02.473Z,19.50
2024-01-20T10:40:30.068Z,17.75
2024-01-20T10:43:02.649Z,19.42
2024-01-20T10:45:38.180Z,19.83
2024-01-20T10:48:12.509Z,15.75
2024-01-20T10:50:47.314Z,15.32
2024-01-20T10:53:15.028Z,15.93
2024-01-20T10:55:44.242Z,16.38
2024-01-20T10:58:17.434Z,17.17
2024-01-20T11:00:46.246Z,13.80
2024-01-20T11:03:14.755Z,15.60
2024-01-20T11:05:47.439Z,14.27
2024-01-20T11:08:15.494Z,13.93
2024-01-20T11:10:44.414Z,14.15
2024-01-20T11:13:14.527Z,14.02
2024-01-20T11:15:42.701Z,13.45
2024-01-20T11:18:18.274Z,12.80
2024-01-20T11:20:55.728Z,13.60
2024-01-20T11:23:23.647Z,14.68
2024-01-20T11:25:51.302Z,13.27
2024-01-20T11:28:27.720Z,16.15
2024-01-20T11:30:55.427Z,13.60
2024-01-20T11:33:23.539Z,12.63
2024-01-20T11:35:53.153Z,11.52
2024-01-20T11:38:20.797Z,14.18
2024-01-20T11:40:58.554Z,12.82
2024-01-20T11:43:28.130Z,12.25
2024-01-20T11:45:56.172Z,12.95
2024-01-20T11:48:24.162Z,12.20
2024-01-20T11:50:53.505Z,11.88
2024-01-20T11:53:22.124Z,12.63
2024-01-20T11:55:57.075Z,11.65
2024-01-20T11:58:24.773Z,12.88
2024-01-20T12:00:54.192Z,12.85
2024-01-20T12:03:23.423Z,10.70
2024-01-20T12:05:52.803Z,10.05
2024-01-20T12:08:21.644Z,12.00
2024-01-20T12:10:50.781Z,12.63
2024-01-20T12:13:18.944Z,11.38
2024-01-20T12:15:48.798Z,8.73
2024-01-20T12:18:18.461Z,10.85
2024-01-20T12:20:46.413Z,13.32
2024-01-20T12:23:21.024Z,10.90
2024-01-20T12:25:48.796Z,10.07
2024-01-20T12:28:18.144Z,11.30
2024-01-20T12:30:45.799Z,11.80
2024-01-20T12:33:12.526Z,10.73
2024-01-20T12:35:41.541Z,9.93
2024-01-20T12:38:09.400Z,10.32
2024-01-20T12:40:37.743Z,10.32
2024-01-20T12:43:05.606Z,10.43
2024-01-20T12:45:33.411Z,10.65
2024-01-20T12:48:01.100Z,10.50
2024-01-20T12:50:29.186Z,10.70
2024-01-20T12:52:58.235Z,10.52
2024-01-20T12:55:25.899Z,10.63
2024-01-20T12:57:53.527Z,10.05
2024-01-20T13:00:21.419Z,11.88
2024-01-20T13:02:49.234Z,10.15
2024-01-20T13:05:16.944Z,9.50
2024-01-20T13:07:44.700Z,8.43
2024-01-20T13:10:13.953Z,11.63
2024-01-20T13:12:41.619Z,9.88
2024-01-20T13:15:10.023Z,8.68
2024-01-20T13:17:37.726Z,10.40
2024-01-20T13:20:07.861Z,9.35
2024-01-20T13:22:35.484Z,10.55
2024-01-20T13:25:03.100Z,9.80
2024-01-20T13:27:32.062Z,8.63
2024-01-20T13:29:59.741Z,10.63
2024-01-20T13:32:27.497Z,11.10
2024-01-20T13:34:55.147Z,8.77
2024-01-20T13:37:25.161Z,8.02
2024-01-20T13:39:52.974Z,10.73
2024-01-20T13:42:20.728Z,7.97
2024-01-20T13:44:49.680Z,10.07
2024-01-20T13:47:17.296Z,7.70
2024-01-20T13:49:45.711Z,9.90
2024-01-20T13:52:13.653Z,8.63
2024-01-20T13:54:41.612Z,8.13
2024-01-20T13:57:09.211Z,8.07
2024-01-20T13:59:37.005Z,9.57
2024-01-20T14:02:06.315Z,6.60
2024-01-20T14:04:34.004Z,10.40
2024-01-20T14:07:06.010Z,9.25
2024-01-20T14:09:34.561Z,8.80
2024-01-20T14:12:02.252Z,9.55
2024-01-20T14:14:30.184Z,8.07
2024-01-20T14:16:58.550Z,8.02
2024-01-20T14:19:28.521Z,6.97
2024-01-20T14:21:56.226Z,8.15
2024-01-20T14:24:23.897Z,8.68
2024-01-20T14:26:51.702Z,8.52
2024-01-20T14:29:19.963Z,7.25
2024-01-20T14:31:48.620Z,8.65
2024-01-20T14:34:16.474Z,7.20
2024-01-20T14:36:47.583Z,9.20
2024-01-20T14:39:17.808Z,8.13
2024-01-20T14:41:45.532Z,8.07
2024-01-20T14:44:13.346Z,5.78
2024-01-20T14:46:41.122Z,7.93
2024-01-20T14:49:09.260Z,7.13
2024-01-20T14:51:37.348Z,7.07
2024-01-20T14:54:06.427Z,7.35
2024-01-20T14:56:36.852Z,8.10
2024-01-20T14:59:04.917Z,6.57
2024-01-20T15:01:32.818Z,9.63
2024-01-20T15:04:01.016Z,7.53
2024-01-20T15:06:29.603Z,5.97
2024-01-20T15:08:57.630Z,6.00
2024-01-20T15:11:26.772Z,6.35
2024-01-20T15:13:54.487Z,6.53
2024-01-20T15:16:22.197Z,6.18
2024-01-20T15:18:50.104Z,6.18
2024-01-20T15:21:17.829Z,5.57
2024-01-20T15:23:45.426Z,5.93
2024-01-20T15:26:15.822Z,6.45
2024-01-20T15:28:45.128Z,5.95
2024-01-20T15:31:12.824Z,5.72
2024-01-20T15:33:40.636Z,5.63
2024-01-20T15:36:08.649Z,5.15
2024-01-20T15:38:36.722Z,7.07
2024-01-20T15:41:04.442Z,7.20
2024-01-20T15:43:31.992Z,7.68
2024-01-20T15:46:01.078Z,6.38
2024-01-20T15:48:28.881Z,6.88
2024-01-20T15:50:56.616Z,5.30
2024-01-20T15:53:24.297Z,4.50
2024-01-20T15:55:51.981Z,6.28
2024-01-20T15:58:19.588Z,4.85
2024-01-20T16:00:47.318Z,5.93
2024-01-20T16:03:16.451Z,5.93
2024-01-20T16:05:44.298Z,6.80
2024-01-20T16:08:11.929Z,6.85
2024-01-20T16:10:39.728Z,6.88
2024-01-20T16:13:07.446Z,7.70
2024-01-20T16:15:35.064Z,9.32
2024-01-20T16:18:05.545Z,7.93
2024-01-20T16:20:35.746Z,6.18
2024-01-20T16:23:04.086Z,7.13
2024-01-20T16:25:31.815Z,6.72
2024-01-20T16:27:59.677Z,6.18
2024-01-20T16:30:27.641Z,7.75
2024-01-20T16:32:55.551Z,6.22
2024-01-20T16:35:23.321Z,8.93
2024-01-20T16:37:52.515Z,11.73
2024-01-20T16:40:20.357Z,10.70
2024-01-20T16:42:48.249Z,17.50
2024-01-20T16:45:16.167Z,15.57
2024-01-20T16:47:44.131Z,16.88
2024-01-20T16:50:11.818Z,12.88
2024-01-20T16:52:40.205Z,16.58
2024-01-20T16:55:14.914Z,13.20
2024-01-20T16:57:44.008Z,12.90
2024-01-20T17:00:13.211Z,14.85
2024-01-20T17:02:40.917Z,12.15
2024-01-20T17:05:08.672Z,11.05
2024-01-20T17:07:36.425Z,11.23
2024-01-20T17:10:04.935Z,11.60
2024-01-20T17:12:34.041Z,9.50
2024-01-20T17:15:01.882Z,10.07
2024-01-20T17:17:29.565Z,8.93
2024-01-20T17:19:59.127Z,8.43
2024-01-20T17:22:27.038Z,8.30
2024-01-20T17:24:54.659Z,8.18
2024-01-20T17:27:22.248Z,9.23
2024-01-20T17:29:51.340Z,8.70
2024-01-20T17:32:19.006Z,7.57
2024-01-20T17:34:46.632Z,7.60
2024-01-20T17:37:14.877Z,7.88
2024-01-20T17:39:42.600Z,7.53
2024-01-20T17:42:10.959Z,6.78
2024-01-20T17:44:38.678Z,7.93
2024-01-20T17:47:08.382Z,8.57
2024-01-20T17:49:36.242Z,7.10
2024-01-20T17:52:04.348Z,6.78
2024-01-20T17:54:32.921Z,8.48
2024-01-20T17:57:00.917Z,8.65
2024-01-20T17:59:29.426Z,12.32
2024-01-20T18:01:57.561Z,7.63
2024-01-20T18:04:26.684Z,7.15
2024-01-20T18:06:54.518Z,8.55
2024-01-20T18:09:24.009Z,9.18
2024-01-20T18:11:53.798Z,6.72
2024-01-20T18:14:21.468Z,8.52
2024-01-20T18:16:50.192Z,6.65
2024-01-20T18:19:18.132Z,9.15
2024-01-20T18:21:48.001Z,8.25
2024-01-20T18:24:15.732Z,7.60
2024-01-20T18:26:43.408Z,8.90
2024-01-20T18:29:10.950Z,8.32
2024-01-20T18:31:38.688Z,9.20
2024-01-20T18:34:06.446Z,7.25
2024-01-20T18:36:34.212Z,8.45
2024-01-20T18:39:03.179Z,6.80
2024-01-20T18:41:30.897Z,7.70
2024-01-20T18:43:59.513Z,7.70
2024-01-20T18:46:27.098Z,8.27
2024-01-20T18:48:54.896Z,8.77
2024-01-20T18:51:22.592Z,6.85
2024-01-20T18:53:50.306Z,7.60
2024-01-20T18:56:19.282Z,10.02
2024-01-20T18:58:46.916Z,7.88
2024-01-20T19:01:14.593Z,6.53
2024-01-20T19:03:42.308Z,8.80
2024-01-20T19:06:10.051Z,7.82
2024-01-20T19:08:38.980Z,7.90
2024-01-20T19:11:08.471Z,7.03
2024-01-20T19:13:37.593Z,7.53
2024-01-20T19:16:05.790Z,8.07
2024-01-20T19:18:34.583Z,8.10
2024-01-20T19:21:02.290Z,8.65
2024-01-20T19:23:29.918Z,7.03
2024-01-20T19:25:58.157Z,8.50
2024-01-20T19:28:25.881Z,8.35
2024-01-20T19:30:55.508Z,8.23
2024-01-20T19:33:23.290Z,7.07
2024-01-20T19:35:51.114Z,7.63
2024-01-20T19:38:18.700Z,7.50
2024-01-20T19:40:46.804Z,8.13
2024-01-20T19:43:14.528Z,9.43
2024-01-20T19:45:42.277Z,7.85
2024-01-20T19:48:13.903Z,7.10
2024-01-20T19:50:41.577Z,7.80
2024-01-20T19:53:09.218Z,8.82
2024-01-20T19:55:37.051Z,6.50
2024-01-20T19:58:05.026Z,7.32
2024-01-20T20:00:32.828Z,8.45
2024-01-20T20:03:01.101Z,8.10
2024-01-20T20:05:31.470Z,6.63
2024-01-20T20:08:02.140Z,8.07
2024-01-20T20:10:30.409Z,8.15
2024-01-20T20:12:58.396Z,6.50
2024-01-20T20:15:26.245Z,8.80
2024-01-20T20:17:53.926Z,5.63
2024-01-20T20:20:23.784Z,6.43
2024-01-20T20:22:52.913Z,6.03
2024-01-20T20:25:20.636Z,6.88
2024-01-20T20:27:48.470Z,5.85
2024-01-20T20:30:16.400Z,9.02
2024-01-20T20:32:44.143Z,7.93
2024-01-20T20:35:13.054Z,6.78
2024-01-20T20:37:40.723Z,6.43
2024-01-20T20:40:11.821Z,8.02
2024-01-20T20:42:39.470Z,6.03
2024-01-20T20:45:08.505Z,7.88
2024-01-20T20:47:36.572Z,6.47
2024-01-20T20:50:06.438Z,6.18
2024-01-20T20:52:34.465Z,6.15
2024-01-20T20:55:02.166Z,6.80
2024-01-20T20:57:31.645Z,7.28
2024-01-20T20:59:59.279Z,6.57
2024-01-20T21:02:26.938Z,5.85
2024-01-20T21:04:54.603Z,8.18
2024-01-20T21:07:23.905Z,7.55
2024-01-20T21:09:53.914Z,6.50
2024-01-20T21:12:21.744Z,6.13
2024-01-20T21:14:50.681Z,8.57
2024-01-20T21:17:18.310Z,5.97
2024-01-20T21:19:46.163Z,7.28
2024-01-20T21:22:13.998Z,5.80
2024-01-20T21:24:41.777Z,6.28
2024-01-20T21:27:09.495Z,6.15
2024-01-20T21:29:37.130Z,6.05
2024-01-20T21:32:07.533Z,6.90
2024-01-20T21:34:35.428Z,5.90
2024-01-20T21:37:03.296Z,6.45
2024-01-20T21:39:30.899Z,7.20
2024-01-20T21:41:58.496Z,8.10
2024-01-20T21:44:26.878Z,6.38
2024-01-20T21:46:54.974Z,6.72
2024-01-20T21:49:24.043Z,6.15
2024-01-20T21:51:53.089Z,7.75
2024-01-20T21:54:20.845Z,6.50
2024-01-20T21:56:48.556Z,7.28
2024-01-20T21:59:16.132Z,7.82
2024-01-20T22:01:43.747Z,6.50
2024-01-20T22:04:11.560Z,6.47
2024-01-20T22:06:40.976Z,7.00
2024-01-20T22:09:08.631Z,7.97
2024-01-20T22:11:36.375Z,6.38
2024-01-20T22:14:04.008Z,7.40
2024-01-20T22:16:31.696Z,7.57
2024-01-20T22:18:59.439Z,7.40
2024-01-20T22:21:27.140Z,7.80
2024-01-20T22:23:56.275Z,6.93
2024-01-20T22:26:24.379Z,6.55
2024-01-20T22:28:53.963Z,7.78
2024-01-20T22:31:22.298Z,7.30
2024-01-20T22:33:50.243Z,6.78
2024-01-20T22:36:17.878Z,6.30
2024-01-20T22:38:46.555Z,6.00
2024-01-20T22:41:17.638Z,10.70
2024-01-20T22:43:45.526Z,6.38
2024-01-20T22:46:17.475Z,6.68
2024-01-20T22:48:45.342Z,6.47
2024-01-20T22:51:20.092Z,7.57
2024-01-20T22:53:47.833Z,7.97
2024-01-20T22:56:17.645Z,6.60
2024-01-20T22:58:46.565Z,6.50
2024-01-20T23:01:14.447Z,6.43
2024-01-20T23:03:42.219Z,9.80
2024-01-20T23:06:10.280Z,8.18
2024-01-20T23:08:37.923Z,5.43
2024-01-20T23:11:06.110Z,5.97
2024-01-20T23:13:35.815Z,6.55
2024-01-20T23:16:03.465Z,5.95
2024-01-20T23:18:31.148Z,6.18
2024-01-20T23:20:58.812Z,5.28
2024-01-20T23:23:27.864Z,5.45
2024-01-20T23:25:55.482Z,6.40
2024-01-20T23:28:23.087Z,6.57
2024-01-20T23:30:52.341Z,6.68
2024-01-20T23:33:20.215Z,6.22
2024-01-20T23:35:47.886Z,6.35
2024-01-20T23:38:15.544Z,5.82
2024-01-20T23:40:43.302Z,7.07
2024-01-20T23:43:11.363Z,5.75
2024-01-20T23:45:38.988Z,5.47
2024-01-20T23:48:09.668Z,6.20
2024-01-20T23:50:39.016Z,5.00
2024-01-20T23:53:06.782Z,4.88
2024-01-20T23:55:34.374Z,5.68
2024-01-20T23:58:01.991Z,7.32
